createdAt,value
2023-02-23T00:02:06.116Z,2.90
2023-02-23T00:04:35.072Z,2.90
2023-02-23T00:07:02.878Z,2.80
2023-02-23T00:09:35.359Z,2.80
2023-02-23T00:12:08.112Z,2.70
2023-02-23T00:14:37.822Z,2.70
2023-02-23T00:17:10.848Z,2.60
2023-02-23T00:19:37.794Z,2.60
2023-02-23T00:22:04.767Z,2.50
2023-02-23T00:24:31.631Z,2.50
2023-02-23T00:26:58.549Z,2.50
2023-02-23T00:29:25.434Z,2.50
2023-02-23T00:31:53.178Z,2.40
2023-02-23T00:34:21.629Z,2.40
2023-02-23T00:36:56.528Z,2.30
2023-02-23T00:39:29.243Z,2.30
2023-02-23T00:42:02.457Z,2.30
2023-02-23T00:44:29.584Z,2.20
2023-02-23T00:46:56.398Z,2.20
2023-02-23T00:49:23.553Z,2.20
2023-02-23T00:51:52.092Z,2.20
2023-02-23T00:54:21.822Z,2.20
2023-02-23T00:56:49.786Z,2.10
2023-02-23T00:59:16.841Z,2.10
2023-02-23T01:01:44.994Z,2.10
2023-02-23T01:04:13.219Z,2.10
2023-02-23T01:06:42.542Z,2.10
2023-02-23T01:09:21.925Z,2.10
2023-02-23T01:11:48.800Z,2.00
2023-02-23T01:14:15.649Z,2.00
2023-02-23T01:16:42.507Z,1.90
2023-02-23T01:19:11.083Z,1.90
2023-02-23T01:21:42.137Z,1.90
2023-02-23T01:24:10.180Z,1.90
2023-02-23T01:26:46.326Z,1.90
2023-02-23T01:29:17.281Z,1.80
2023-02-23T01:31:47.963Z,1.80
2023-02-23T01:34:15.684Z,1.80
2023-02-23T01:36:44.411Z,1.80
2023-02-23T01:39:16.182Z,1.70
2023-02-23T01:41:43.488Z,1.70
2023-02-23T01:44:13.448Z,1.70
2023-02-23T01:46:45.391Z,1.70
2023-02-23T01:49:20.142Z,1.70
2023-02-23T01:51:55.640Z,1.60
2023-02-23T01:54:31.090Z,1.60
2023-02-23T01:57:01.650Z,1.60
2023-02-23T01:59:39.653Z,1.50
2023-02-23T02:02:07.587Z,1.50
2023-02-23T02:04:47.762Z,1.40
2023-02-23T02:07:22.768Z,1.40
2023-02-23T02:10:10.731Z,1.40
2023-02-23T02:12:42.618Z,1.40
2023-02-23T02:15:17.209Z,1.40
2023-02-23T02:18:09.106Z,1.40
2023-02-23T02:21:19.002Z,1.30
2023-02-23T02:24:35.746Z,1.30
2023-02-23T02:27:34.163Z,1.30
2023-02-23T02:30:50.727Z,1.30
2023-02-23T02:34:11.819Z,1.30
2023-02-23T02:37:18.303Z,1.30
2023-02-23T02:40:18.111Z,1.20
2023-02-23T02:43:21.137Z,1.20
2023-02-23T02:46:14.268Z,1.20
2023-02-23T02:49:06.612Z,1.20
2023-02-23T02:52:06.517Z,1.20
2023-02-23T02:54:56.906Z,1.10
2023-02-23T02:57:28.658Z,1.10
2023-02-23T03:00:16.370Z,1.10
2023-02-23T03:03:01.931Z,1.10
2023-02-23T03:06:14.134Z,1.10
2023-02-23T03:10:02.448Z,1.10
2023-02-23T03:13:21.827Z,1.10
2023-02-23T03:16:31.712Z,1.10
2023-02-23T03:19:39.429Z,1.10
2023-02-23T03:22:53.537Z,1.00
2023-02-23T03:26:04.581Z,1.00
2023-02-23T03:29:01.460Z,1.00
2023-02-23T03:32:16.297Z,1.00
2023-02-23T03:35:42.997Z,1.00
2023-02-23T03:38:48.351Z,1.10
2023-02-23T03:41:38.976Z,1.10
2023-02-23T03:44:36.500Z,1.10
2023-02-23T03:47:25.569Z,1.00
2023-02-23T03:50:13.366Z,1.10
2023-02-23T03:53:12.850Z,1.10
2023-02-23T03:56:04.454Z,1.10
2023-02-23T03:59:07.638Z,1.10
2023-02-23T04:01:57.286Z,1.10
2023-02-23T04:04:46.048Z,1.10
2023-02-23T04:07:37.925Z,1.10
2023-02-23T04:10:26.379Z,1.10
2023-02-23T04:13:17.252Z,1.10
2023-02-23T04:16:01.814Z,1.10
2023-02-23T04:18:36.118Z,1.10
2023-02-23T04:21:04.983Z,1.10
2023-02-23T04:23:32.717Z,1.10
2023-02-23T04:25:59.791Z,1.10
2023-02-23T04:28:28.262Z,1.10
2023-02-23T04:30:55.270Z,1.10
2023-02-23T04:33:24.954Z,1.00
2023-02-23T04:35:54.410Z,1.10
2023-02-23T04:38:22.584Z,1.00
2023-02-23T04:40:49.872Z,1.00
2023-02-23T04:43:17.031Z,1.00
2023-02-23T04:45:45.227Z,1.00
2023-02-23T04:48:12.142Z,1.00
2023-02-23T04:50:39.611Z,1.00
2023-02-23T04:53:06.681Z,1.00
2023-02-23T04:55:33.879Z,0.90
2023-02-23T04:58:02.380Z,1.00
2023-02-23T05:00:30.432Z,1.00
2023-02-23T05:02:58.084Z,1.00
2023-02-23T05:05:25.587Z,1.00
2023-02-23T05:07:53.666Z,1.00
2023-02-23T05:10:20.715Z,1.00
2023-02-23T05:12:47.520Z,0.90
2023-02-23T05:15:17.928Z,0.90
2023-02-23T05:17:44.859Z,0.90
2023-02-23T05:20:14.476Z,0.90
2023-02-23T05:22:41.660Z,0.90
2023-02-23T05:25:10.094Z,0.90
2023-02-23T05:27:37.418Z,0.90
2023-02-23T05:30:07.747Z,0.90
2023-02-23T05:32:34.931Z,0.90
2023-02-23T05:35:02.599Z,0.90
2023-02-23T05:37:29.598Z,0.90
2023-02-23T05:39:56.417Z,0.90
2023-02-23T05:42:23.214Z,0.90
2023-02-23T05:44:50.096Z,0.90
2023-02-23T05:47:17.090Z,0.90
2023-02-23T05:49:46.114Z,0.90
2023-02-23T05:52:13.052Z,0.90
2023-02-23T05:54:39.876Z,0.90
2023-02-23T05:57:08.283Z,0.90
2023-02-23T05:59:35.112Z,0.90
2023-02-23T06:02:05.729Z,0.80
2023-02-23T06:04:33.174Z,0.80
2023-02-23T06:07:00.129Z,0.90
2023-02-23T06:09:27.171Z,0.90
2023-02-23T06:11:54.109Z,0.90
2023-02-23T06:14:21.035Z,0.90
2023-02-23T06:16:48.815Z,0.90
2023-02-23T06:19:15.841Z,0.90
2023-02-23T06:21:42.738Z,0.90
2023-02-23T06:24:09.727Z,0.90
2023-02-23T06:26:37.099Z,0.90
2023-02-23T06:29:05.201Z,0.80
2023-02-23T06:31:32.107Z,0.90
2023-02-23T06:33:58.982Z,0.90
2023-02-23T06:36:25.865Z,0.90
2023-02-23T06:39:00.866Z,1.00
2023-02-23T06:41:27.734Z,1.00
2023-02-23T06:43:54.577Z,1.00
2023-02-23T06:46:21.519Z,1.00
2023-02-23T06:48:48.458Z,1.00
2023-02-23T06:51:15.323Z,1.00
2023-02-23T06:53:42.165Z,1.00
2023-02-23T06:56:10.123Z,1.10
2023-02-23T06:58:38.475Z,1.10
2023-02-23T07:01:05.527Z,1.20
2023-02-23T07:03:32.768Z,1.20
2023-02-23T07:05:59.610Z,1.20
2023-02-23T07:08:26.529Z,1.30
2023-02-23T07:10:53.420Z,1.30
2023-02-23T07:13:21.936Z,1.30
2023-02-23T07:15:49.357Z,1.30
2023-02-23T07:18:16.357Z,1.40
2023-02-23T07:20:43.165Z,1.30
2023-02-23T07:23:10.042Z,1.40
2023-02-23T07:25:36.857Z,1.40
2023-02-23T07:28:03.778Z,1.40
2023-02-23T07:30:30.653Z,1.50
2023-02-23T07:32:57.460Z,1.50
2023-02-23T07:35:24.283Z,1.60
2023-02-23T07:37:51.157Z,1.60
2023-02-23T07:40:19.421Z,1.60
2023-02-23T07:42:46.256Z,1.70
2023-02-23T07:45:13.288Z,1.70
2023-02-23T07:47:40.325Z,1.80
2023-02-23T07:50:09.871Z,1.90
2023-02-23T07:52:38.371Z,2.00
2023-02-23T07:55:07.007Z,2.00
2023-02-23T07:57:34.771Z,2.00
2023-02-23T08:00:02.120Z,2.10
2023-02-23T08:02:29.168Z,2.10
2023-02-23T08:04:56.408Z,2.20
2023-02-23T08:07:24.523Z,2.30
2023-02-23T08:09:51.964Z,2.40
2023-02-23T08:12:19.038Z,2.40
2023-02-23T08:14:45.979Z,2.50
2023-02-23T08:17:13.032Z,2.50
2023-02-23T08:19:40.165Z,2.50
2023-02-23T08:22:09.920Z,2.60
2023-02-23T08:24:38.565Z,2.70
2023-02-23T08:27:05.583Z,2.80
2023-02-23T08:29:33.422Z,2.90
2023-02-23T08:32:04.004Z,3.10
2023-02-23T08:34:31.701Z,3.10
2023-02-23T08:36:58.699Z,3.20
2023-02-23T08:39:25.676Z,3.30
2023-02-23T08:41:55.610Z,3.30
2023-02-23T08:44:22.548Z,3.30
2023-02-23T08:46:49.381Z,3.30
2023-02-23T08:49:16.238Z,3.30
2023-02-23T08:51:43.144Z,3.40
2023-02-23T08:54:14.570Z,3.50
2023-02-23T08:56:42.389Z,3.60
2023-02-23T08:59:10.337Z,3.70
2023-02-23T09:01:37.625Z,3.80
2023-02-23T09:04:05.955Z,3.80
2023-02-23T09:06:35.259Z,3.90
2023-02-23T09:09:02.696Z,3.90
2023-02-23T09:11:29.525Z,4.10
2023-02-23T09:13:56.365Z,4.10
2023-02-23T09:16:23.233Z,4.30
2023-02-23T09:18:50.116Z,4.30
2023-02-23T09:21:25.264Z,4.30
2023-02-23T09:23:58.725Z,4.40
2023-02-23T09:26:28.449Z,4.40
2023-02-23T09:28:58.055Z,4.50
2023-02-23T09:31:25.161Z,4.60
2023-02-23T09:33:53.293Z,4.60
2023-02-23T09:36:25.235Z,4.60
2023-02-23T09:38:56.998Z,4.60
2023-02-23T09:41:30.233Z,4.70
2023-02-23T09:44:16.581Z,4.70
2023-02-23T09:47:11.426Z,4.80
2023-02-23T09:49:43.279Z,4.90
2023-02-23T09:52:30.343Z,4.90
2023-02-23T09:55:00.318Z,5.00
2023-02-23T09:57:41.896Z,4.90
2023-02-23T10:00:25.342Z,4.90
2023-02-23T10:03:07.038Z,4.90
2023-02-23T10:05:43.966Z,4.90
2023-02-23T10:08:30.531Z,5.00
2023-02-23T10:11:37.686Z,5.10
2023-02-23T10:14:20.629Z,5.10
2023-02-23T10:17:29.721Z,5.00
2023-02-23T10:20:16.633Z,5.00
2023-02-23T10:22:47.374Z,5.00
2023-02-23T10:25:25.474Z,5.00
2023-02-23T10:27:56.115Z,5.10
2023-02-23T10:30:33.589Z,5.10
2023-02-23T10:33:03.495Z,5.00
2023-02-23T10:35:32.115Z,5.10
2023-02-23T10:38:02.100Z,5.10
2023-02-23T10:40:33.754Z,5.10
2023-02-23T10:43:02.617Z,5.20
2023-02-23T10:45:37.389Z,5.20
2023-02-23T10:48:21.630Z,5.20
2023-02-23T10:50:53.906Z,5.30
2023-02-23T10:53:35.722Z,5.30
2023-02-23T10:56:17.592Z,5.30
2023-02-23T10:58:47.731Z,5.40
2023-02-23T11:01:49.102Z,5.50
2023-02-23T11:04:27.934Z,5.60
2023-02-23T11:07:18.519Z,5.80
2023-02-23T11:09:47.880Z,5.90
2023-02-23T11:12:22.067Z,5.90
2023-02-23T11:14:58.077Z,6.10
2023-02-23T11:17:28.976Z,6.10
2023-02-23T11:20:15.617Z,6.10
2023-02-23T11:22:42.975Z,6.20
2023-02-23T11:25:30.283Z,6.30
2023-02-23T11:27:58.854Z,6.40
2023-02-23T11:30:37.083Z,6.30
2023-02-23T11:33:12.193Z,6.30
2023-02-23T11:35:39.618Z,6.30
2023-02-23T11:38:21.137Z,6.40
2023-02-23T11:41:23.550Z,6.40
2023-02-23T11:44:04.294Z,6.40
2023-02-23T11:46:38.232Z,6.40
2023-02-23T11:49:14.614Z,6.40
2023-02-23T11:51:49.036Z,6.40
2023-02-23T11:54:33.265Z,6.50
2023-02-23T11:57:02.695Z,6.50
2023-02-23T11:59:41.208Z,6.50
2023-02-23T12:02:19.252Z,6.60
2023-02-23T12:04:47.729Z,6.60
2023-02-23T12:07:43.694Z,6.50
2023-02-23T12:10:37.959Z,6.60
2023-02-23T12:13:37.536Z,6.60
2023-02-23T12:16:28.282Z,6.60
2023-02-23T12:19:25.338Z,6.60
2023-02-23T12:22:15.547Z,6.60
2023-02-23T12:25:04.964Z,6.60
2023-02-23T12:27:58.264Z,6.60
2023-02-23T12:30:39.124Z,6.60
2023-02-23T12:33:21.614Z,6.50
2023-02-23T12:36:02.672Z,6.50
2023-02-23T12:39:04.541Z,6.60
2023-02-23T12:41:41.880Z,6.60
2023-02-23T12:44:31.563Z,6.70
2023-02-23T12:47:32.244Z,6.70
2023-02-23T12:50:28.612Z,6.70
2023-02-23T12:53:06.936Z,6.70
2023-02-23T12:56:05.036Z,6.70
2023-02-23T12:59:14.336Z,6.70
2023-02-23T13:02:02.535Z,6.70
2023-02-23T13:05:13.049Z,6.80
2023-02-23T13:07:59.251Z,6.80
2023-02-23T13:10:49.853Z,6.90
2023-02-23T13:13:49.606Z,6.90
2023-02-23T13:16:36.438Z,7.00
2023-02-23T13:19:19.482Z,7.10
2023-02-23T13:21:53.838Z,7.10
2023-02-23T13:24:36.495Z,7.10
2023-02-23T13:27:26.491Z,7.10
2023-02-23T13:29:56.750Z,7.10
2023-02-23T13:32:36.256Z,7.10
2023-02-23T13:35:08.357Z,7.10
2023-02-23T13:38:03.470Z,7.20
2023-02-23T13:40:45.165Z,7.20
2023-02-23T13:43:42.942Z,7.30
2023-02-23T13:46:37.329Z,7.30
2023-02-23T13:49:32.827Z,7.30
2023-02-23T13:52:15.779Z,7.30
2023-02-23T13:54:58.703Z,7.40
2023-02-23T13:57:28.613Z,7.40
2023-02-23T13:59:55.706Z,7.40
2023-02-23T14:02:28.697Z,7.40
2023-02-23T14:05:05.326Z,7.40
2023-02-23T14:07:41.548Z,7.40
2023-02-23T14:10:30.334Z,7.40
2023-02-23T14:13:04.513Z,7.40
2023-02-23T14:15:40.295Z,7.40
2023-02-23T14:18:19.041Z,7.40
2023-02-23T14:20:51.376Z,7.50
2023-02-23T14:23:21.264Z,7.40
2023-02-23T14:25:52.750Z,7.30
2023-02-23T14:28:34.358Z,7.30
2023-02-23T14:31:13.378Z,7.30
2023-02-23T14:33:43.177Z,7.20
2023-02-23T14:47:28.423Z,7.10
2023-02-23T14:50:00.632Z,7.80
2023-02-23T14:52:33.309Z,7.60
2023-02-23T14:55:29.579Z,7.40
2023-02-23T14:57:58.407Z,7.30
2023-02-23T15:00:32.679Z,7.20
2023-02-23T15:03:12.523Z,7.10
2023-02-23T15:05:53.707Z,7.10
2023-02-23T15:08:28.276Z,7.10
2023-02-23T15:11:12.366Z,7.00
2023-02-23T15:13:50.007Z,7.00
2023-02-23T15:16:31.854Z,7.00
2023-02-23T15:19:01.768Z,7.00
2023-02-23T15:21:29.085Z,6.90
2023-02-23T15:24:12.019Z,6.90
2023-02-23T15:26:41.604Z,6.90
2023-02-23T15:29:13.650Z,6.90
2023-02-23T15:31:50.487Z,6.90
2023-02-23T15:34:24.895Z,6.90
2023-02-23T15:36:58.947Z,6.80
2023-02-23T15:39:58.867Z,6.80
2023-02-23T15:56:30.220Z,7.10
2023-02-23T15:59:05.480Z,8.10
2023-02-23T16:01:32.959Z,8.00
2023-02-23T16:04:17.918Z,7.80
2023-02-23T16:07:08.258Z,7.70
2023-02-23T16:09:39.320Z,7.70
2023-02-23T16:12:16.348Z,7.60
2023-02-23T16:15:00.418Z,7.50
2023-02-23T16:17:32.872Z,7.50
2023-02-23T16:20:55.821Z,7.50
2023-02-23T16:23:37.539Z,7.40
2023-02-23T16:26:24.682Z,7.40
2023-02-23T16:29:00.619Z,7.30
2023-02-23T16:32:01.708Z,7.30
2023-02-23T16:34:48.231Z,7.30
2023-02-23T16:37:26.202Z,7.30
2023-02-23T16:39:53.793Z,7.30
2023-02-23T16:42:31.255Z,7.30
2023-02-23T16:44:59.933Z,7.30
2023-02-23T16:47:49.841Z,7.20
2023-02-23T16:50:24.512Z,7.20
2023-02-23T16:52:55.268Z,7.10
2023-02-23T16:55:28.330Z,7.10
2023-02-23T16:58:00.394Z,7.00
2023-02-23T17:00:31.825Z,7.00
2023-02-23T17:03:00.713Z,6.90
2023-02-23T17:05:30.452Z,6.90
2023-02-23T17:07:59.066Z,6.90
2023-02-23T17:10:34.698Z,6.80
2023-02-23T17:13:07.925Z,6.90
2023-02-23T17:15:42.435Z,6.90
2023-02-23T17:18:09.808Z,6.90
2023-02-23T17:20:36.700Z,6.90
2023-02-23T17:23:04.242Z,6.80
2023-02-23T17:25:31.555Z,6.80
2023-02-23T17:27:59.907Z,6.80
2023-02-23T17:30:28.457Z,6.80
2023-02-23T17:32:58.605Z,6.80
2023-02-23T17:35:26.936Z,6.60
2023-02-23T17:37:54.554Z,6.60
2023-02-23T17:40:28.933Z,6.50
2023-02-23T17:42:59.591Z,6.50
2023-02-23T17:45:28.466Z,6.50
2023-02-23T17:47:57.234Z,6.50
2023-02-23T17:50:27.198Z,6.40
2023-02-23T17:52:54.791Z,6.40
2023-02-23T17:55:24.192Z,6.50
2023-02-23T17:57:52.553Z,6.50
2023-02-23T18:00:20.955Z,6.50
2023-02-23T18:02:48.487Z,6.50
2023-02-23T18:05:16.043Z,6.50
2023-02-23T18:07:43.401Z,6.50
2023-02-23T18:10:13.432Z,6.50
2023-02-23T18:12:41.563Z,6.50
2023-02-23T18:15:09.285Z,6.40
2023-02-23T18:17:37.339Z,6.50
2023-02-23T18:20:08.892Z,6.40
2023-02-23T18:22:36.002Z,6.40
2023-02-23T18:25:03.292Z,6.50
2023-02-23T18:27:30.326Z,6.50
2023-02-23T18:29:57.257Z,6.40
2023-02-23T18:32:24.552Z,6.50
2023-02-23T18:34:51.783Z,6.40
2023-02-23T18:37:25.306Z,6.40
2023-02-23T18:39:54.461Z,6.50
2023-02-23T18:42:21.503Z,6.40
2023-02-23T18:44:48.569Z,6.50
2023-02-23T18:47:15.670Z,6.50
2023-02-23T18:49:43.234Z,6.60
2023-02-23T18:52:10.569Z,6.50
2023-02-23T18:54:39.863Z,6.40
2023-02-23T18:57:07.149Z,6.40
2023-02-23T18:59:34.643Z,6.30
2023-02-23T19:02:01.875Z,6.40
2023-02-23T19:04:29.017Z,6.40
2023-02-23T19:06:56.245Z,6.40
2023-02-23T19:09:24.662Z,6.40
2023-02-23T19:11:53.513Z,6.40
2023-02-23T19:14:32.945Z,6.50
2023-02-23T19:17:08.981Z,6.50
2023-02-23T19:19:38.952Z,6.50
2023-02-23T19:22:07.993Z,6.50
2023-02-23T19:24:38.481Z,6.50
2023-02-23T19:27:06.499Z,6.50
2023-02-23T19:29:34.543Z,6.60
2023-02-23T19:32:03.519Z,6.60
2023-02-23T19:34:32.814Z,6.50
2023-02-23T19:37:01.263Z,6.50
2023-02-23T19:39:30.317Z,6.60
2023-02-23T19:41:58.922Z,6.60
2023-02-23T19:44:27.829Z,6.60
2023-02-23T19:46:57.144Z,6.60
2023-02-23T19:49:25.809Z,6.60
2023-02-23T19:51:53.088Z,6.60
2023-02-23T19:54:21.118Z,6.60
2023-02-23T19:56:52.724Z,6.60
2023-02-23T19:59:20.816Z,6.60
2023-02-23T20:01:52.141Z,6.50
2023-02-23T20:04:19.722Z,6.60
2023-02-23T20:06:49.530Z,6.50
2023-02-23T20:09:18.123Z,6.50
2023-02-23T20:11:47.066Z,6.50
2023-02-23T20:14:17.690Z,6.50
2023-02-23T20:16:45.803Z,6.50
2023-02-23T20:19:13.603Z,6.50
2023-02-23T20:21:42.269Z,6.50
2023-02-23T20:24:11.065Z,6.50
2023-02-23T20:26:39.636Z,6.50
2023-02-23T20:29:18.052Z,6.50
2023-02-23T20:31:53.977Z,6.40
2023-02-23T20:34:24.886Z,6.40
2023-02-23T20:36:53.920Z,6.50
2023-02-23T20:39:24.559Z,6.40
2023-02-23T20:41:53.828Z,6.40
2023-02-23T20:44:24.531Z,6.40
2023-02-23T20:46:51.704Z,6.40
2023-02-23T20:49:20.063Z,6.40
2023-02-23T20:51:48.612Z,6.30
2023-02-23T20:54:17.402Z,6.30
2023-02-23T20:56:45.078Z,6.30
2023-02-23T20:59:13.767Z,6.30
2023-02-23T21:01:42.752Z,6.30
2023-02-23T21:04:09.874Z,6.30
2023-02-23T21:06:36.879Z,6.30
2023-02-23T21:09:12.524Z,6.20
2023-02-23T21:11:39.344Z,6.30
2023-02-23T21:14:08.341Z,6.20
2023-02-23T21:16:38.738Z,6.20
2023-02-23T21:19:05.718Z,6.20
2023-02-23T21:21:45.774Z,6.20
2023-02-23T21:24:15.084Z,6.20
2023-02-23T21:26:42.858Z,6.10
2023-02-23T21:29:16.379Z,6.10
2023-02-23T21:31:46.320Z,6.20
2023-02-23T21:34:18.822Z,6.10
2023-02-23T21:36:46.612Z,6.10
2023-02-23T21:39:13.811Z,6.10
2023-02-23T21:41:40.772Z,6.00
2023-02-23T21:44:09.179Z,6.10
2023-02-23T21:46:36.242Z,6.10
2023-02-23T21:49:07.290Z,6.10
2023-02-23T21:51:34.656Z,6.10
2023-02-23T21:54:01.911Z,6.00
2023-02-23T21:56:29.616Z,6.00
2023-02-23T21:58:57.090Z,6.00
2023-02-23T22:01:31.146Z,6.00
2023-02-23T22:03:58.304Z,5.90
2023-02-23T22:06:35.986Z,5.90
2023-02-23T22:09:04.313Z,5.80
2023-02-23T22:11:31.581Z,5.90
2023-02-23T22:14:00.114Z,5.80
2023-02-23T22:16:35.814Z,5.70
2023-02-23T22:19:04.287Z,5.70
2023-02-23T22:21:37.656Z,5.60
2023-02-23T22:24:05.761Z,5.60
2023-02-23T22:26:39.273Z,5.60
2023-02-23T22:29:09.943Z,5.60
2023-02-23T22:31:40.032Z,5.50
2023-02-23T22:34:07.283Z,5.60
2023-02-23T22:36:34.941Z,5.40
2023-02-23T22:39:03.877Z,5.50
2023-02-23T22:41:30.793Z,5.50
2023-02-23T22:43:58.393Z,5.40
2023-02-23T22:46:26.216Z,5.40
2023-02-23T22:48:53.462Z,5.40
2023-02-23T22:51:21.068Z,5.30
2023-02-23T22:53:48.183Z,5.40
2023-02-23T22:56:15.061Z,5.30
2023-02-23T22:58:42.352Z,5.30
2023-02-23T23:01:12.107Z,5.40
2023-02-23T23:03:48.235Z,5.40
2023-02-23T23:06:22.111Z,5.40
2023-02-23T23:08:55.617Z,5.40
2023-02-23T23:11:28.107Z,5.40
2023-02-23T23:14:02.772Z,5.30
2023-02-23T23:30:47.179Z,5.20
2023-02-23T23:33:14.318Z,5.80
2023-02-23T23:35:42.778Z,5.80
2023-02-23T23:38:09.877Z,5.70
2023-02-23T23:40:37.696Z,5.50
2023-02-23T23:43:07.855Z,5.60
2023-02-23T23:45:38.238Z,5.60
2023-02-23T23:48:09.485Z,5.50
2023-02-23T23:50:39.521Z,5.50
2023-02-23T23:53:07.668Z,5.40
2023-02-23T23:55:34.779Z,5.50
2023-02-23T23:58:01.844Z,5.50
